默认 日期 大小 文件数 浏览量 最新下载 xml
citadel磁力链接相关资源由用户搜索指令自动获取,结果来源于网络,本站不存储任何资料,亦不承担任何责任,请于24小时内删除,搜索到1612个磁力,用时2ms。
    {"Citadel (2014)": {"cover.jpg": 68929, "04. ...
创建时间: 2018-12-06 07:30:17 大小:102.11 MB 文件数量:7 热度:9 最近下载:2024-10-29 20:54:02
    {"Dred 1.jpg": 1011809, "Dred 2.jpg": 1086226, "D-Red - Hara-Kiri.ogg": 104434691, "D.Red, DJ - Hara-Kiri.sfv": 143}
创建时间: 2018-12-06 20:57:08 大小:101.6 MB 文件数量:4 热度:17 最近下载:2025-08-04 12:03:09
    {"setup.2": 1048576000, "setup.3": 785881814, "setup.exe": 1048576000}
创建时间: 2018-12-07 00:37:16 大小:2.69 GB 文件数量:3 热度:9 最近下载:2024-10-31 14:37:01
    {"RARBG.txt": 30, "Citadel.2012.BRRip.XviD.MP3-XVID.avi": 980622736}
创建时间: 2018-12-07 20:27:33 大小:935.19 MB 文件数量:2 热度:8 最近下载:2024-11-01 17:41:01
    {"RARBG.txt": 31, "plaza.nfo": 3908, "plaza-tempest.citadel.iso": 1150320640}
创建时间: 2018-12-07 21:02:37 大小:1.07 GB 文件数量:3 热度:10 最近下载:2024-12-06 13:05:01
    {"www.MEGAtorrent.co.jpg": 73800, "Citadel Update 12.08.2018.exe": 53263480, "Torrent downloaded from Kickass.to.txt": 96}
创建时间: 2018-12-08 04:56:20 大小:50.87 MB 文件数量:3 热度:8 最近下载:2024-11-03 02:35:01
    {"EDF1.jpg": 1187819, "EDF2.jpg": 534010, "Esclavos Del Futuro - Toxotes Jaculator.ogg": 90543633, "Esclavos Del Futuro - Toxotes Jaculator (1997).sfv": 161}
创建时间: 2018-12-08 06:38:18 大小:87.99 MB 文件数量:4 热度:6 最近下载:2024-11-20 11:50:01
    {"Trailer - The Citadel.avi": 41943040, "The Citadel (1938) Xvid 1cd - Robert Donat, Rosalind Russell [DDR].avi": 733788160}
创建时间: 2018-12-08 17:12:08 大小:739.79 MB 文件数量:2 热度:14 最近下载:2025-10-03 11:15:03
    {"www.MEGAtorrent.co.jpg": 73800, "Citadel Update 12.08.2018.exe": 53263480, "Torrent downloaded from Kickass.to.txt": 96}
创建时间: 2018-12-11 03:10:22 大小:50.87 MB 文件数量:3 热度:8 最近下载:2025-01-08 09:35:02
    {"crack": {"run_03a2a.exe": 152800}, "Keys.pdf": 9304, "Tempest.Citadel-PLAZA.exe": 5164190}
创建时间: 2018-12-14 13:30:36 大小:5.08 MB 文件数量:3 热度:7 最近下载:2024-10-19 20:32:02
    {"How to Paint Eldar.pdf": 30090197}
创建时间: 2018-12-15 02:25:06 大小:28.7 MB 文件数量:1 热度:7 最近下载:2024-10-20 04:31:01
    {"WWW.YIFY-TORRENTS.COM.jpg": 130677, "Citadel.2012.720p.BrRIp.x264.YIFY.mp4": 629490558}
创建时间: 2018-12-15 09:38:10 大小:600.45 MB 文件数量:2 热度:8 最近下载:2024-12-02 20:01:26
    {"reloaded.nfo": 4612, "rld-me3citadel.iso": 5390499840}
创建时间: 2018-12-15 14:33:34 大小:5.02 GB 文件数量:2 热度:7 最近下载:2024-11-03 12:38:01
    {"Avengers.Secret.Wars.S04E23.The.Citadel.WEB-DL.x264.AAC.mp4": 117022553, "Avengers.Secret.Wars.S04E23.The.Citadel.WEB-DL.x264.AAC.srt": 29526}
创建时间: 2018-12-16 03:00:38 大小:111.63 MB 文件数量:2 热度:7 最近下载:2024-11-13 14:34:02
    {"Citadel_DVD5_[torrents.ru]": {"Covers": {"The_Citadel_1939_custom-[cdcovers_cc]-cd1.jpg": 267412, "The_Citadel_1939_custom-[cdcovers_cc]-front.jpg": 637450}, "VIDEO_TS": {"VIDEO_TS.BUP": 14336, "VIDEO_TS.IFO": 14336, "VIDEO_TS.VOB": 10240, "VTS_01_0.BUP ...
创建时间: 2018-12-16 03:14:47 大小:4.3 GB 文件数量:21 热度:7 最近下载:2024-09-28 13:09:05
    {"Avengers.Secret.Wars.S04E23.The.Citadel.1080p.WEB-DL.DD5.1.AAC2.0.H.264-YFN.mkv": 935740587}
创建时间: 2018-12-16 21:30:46 大小:892.39 MB 文件数量:1 热度:8 最近下载:2024-10-31 23:35:02
    {"me3cp-ind.nfo": 169, "me3cp-ind.r00": 50000000, "me3cp-ind.r01": 50000000, "me3cp-ind.r02": 50000000, "me3cp-ind.r03": 50000000, "me3cp-ind.r04": 50000000, "me3cp-ind.r05": 50000000, "me3cp-ind.r06": 50000000, "me3cp-ind.r07": 50000000, "me3cp-ind.r08": ...
创建时间: 2018-12-17 08:25:41 大小:3.94 GB 文件数量:87 热度:17 最近下载:2025-02-08 06:54:03
    {"plaza.nfo": 3908, "README.txt": 148, "IGG-GAMES.COM.url": 198, "GAMESTORRENT.CO.url": 196, "plaza-tempest.citadel.iso": 1150320640}
创建时间: 2018-12-19 00:21:00 大小:1.07 GB 文件数量:5 热度:7 最近下载:2024-11-07 06:56:01
    {"reloaded.nfo": 4612, "rld-me3citadel.iso": 5390499840}
创建时间: 2018-12-19 01:42:32 大小:5.02 GB 文件数量:2 热度:8 最近下载:2025-01-22 08:59:05
    {"crack": {"run_03a2a.exe": 152802}, "Keys.pdf": 9304, "Tempest.Citadel-PLAZA.exe": 5164190}
创建时间: 2018-12-19 02:37:12 大小:5.08 MB 文件数量:3 热度:9 最近下载:2025-01-19 04:56:03